Time;durP1;ratioP1;P1;durP2;ratioP2;P2;SDS_P1;SDS_P2;PMS_P1;PMS_P2;Temp;Humidity;BMP_temperature;BMP_pressure;BME280_temperature;BME280_humidity;BME280_pressure;Samples;Min_cycle;Max_cycle;Signal;HPM_P1;HPM_P2
2022/11/28 05:02:17;;;;;;;7.23;6.63;;;5.80;99.90;;;;;;5177054;23;20585;-63
2022/11/28 05:04:44;;;;;;;7.63;7.10;;;5.80;99.90;;;;;;4996019;28;20449;-64
2022/11/28 05:07:11;;;;;;;8.03;7.37;;;5.80;99.90;;;;;;4994719;28;20909;-63
2022/11/28 05:09:38;;;;;;;7.17;6.57;;;5.80;99.90;;;;;;4994890;28;20454;-64
2022/11/28 05:12:05;;;;;;;10.67;7.30;;;5.70;99.90;;;;;;4994579;28;21027;-63
2022/11/28 05:14:32;;;;;;;8.13;7.53;;;5.70;99.90;;;;;;4994797;28;20454;-64
2022/11/28 05:16:58;;;;;;;8.03;7.33;;;5.70;99.90;;;;;;4994365;28;20987;-64
2022/11/28 05:19:26;;;;;;;9.20;8.40;;;5.70;99.90;;;;;;4994732;28;20457;-65
2022/11/28 05:21:54;;;;;;;8.10;6.87;;;5.70;99.90;;;;;;4995889;28;20478;-64
2022/11/28 05:24:21;;;;;;;7.50;6.90;;;5.70;99.90;;;;;;4998409;28;20461;-64
2022/11/28 05:26:47;;;;;;;7.17;6.67;;;5.70;99.90;;;;;;4995846;28;20514;-64
2022/11/28 05:29:14;;;;;;;7.67;7.07;;;5.80;99.90;;;;;;4994762;28;20949;-64
2022/11/28 05:31:41;;;;;;;7.93;7.33;;;5.80;99.90;;;;;;4994845;28;20473;-64
2022/11/28 05:34:07;;;;;;;7.87;7.07;;;5.80;99.90;;;;;;4995780;28;20460;-64
2022/11/28 05:36:36;;;;;;;7.80;7.27;;;5.90;99.90;;;;;;4994635;28;20479;-64
2022/11/28 05:39:02;;;;;;;7.83;7.13;;;6.00;99.90;;;;;;4994817;28;20554;-65
2022/11/28 05:41:30;;;;;;;9.00;8.10;;;6.00;99.90;;;;;;4994683;28;20548;-64
2022/11/28 05:43:58;;;;;;;8.20;7.50;;;6.00;99.90;;;;;;4994635;28;20481;-64
2022/11/28 05:46:25;;;;;;;9.67;8.83;;;6.00;99.90;;;;;;4994307;28;20454;-65
2022/11/28 05:48:52;;;;;;;9.77;8.97;;;6.10;99.90;;;;;;4994535;28;20937;-64
2022/11/28 05:51:19;;;;;;;7.23;6.73;;;6.10;99.90;;;;;;4994422;28;20478;-64
2022/11/28 05:53:47;;;;;;;7.97;7.37;;;6.10;99.90;;;;;;4994644;28;20860;-64
2022/11/28 05:56:17;;;;;;;9.23;8.23;;;6.10;99.90;;;;;;4994804;28;20478;-63
2022/11/28 05:58:44;;;;;;;9.37;8.67;;;6.10;99.90;;;;;;4994613;28;20512;-63
2022/11/28 06:01:12;;;;;;;8.93;8.13;;;6.20;99.90;;;;;;4994216;28;20902;-65
2022/11/28 06:03:39;;;;;;;9.57;8.87;;;6.20;99.90;;;;;;4994733;28;20457;-65
2022/11/28 06:06:12;;;;;;;8.37;7.67;;;6.20;99.90;;;;;;4994583;28;20508;-65
2022/11/28 06:08:39;;;;;;;8.20;7.60;;;6.10;99.90;;;;;;4994737;28;20442;-63
2022/11/28 06:11:08;;;;;;;7.60;7.00;;;6.10;99.90;;;;;;4994514;28;20477;-64
2022/11/28 06:13:35;;;;;;;7.80;7.10;;;6.10;99.90;;;;;;4994287;28;20492;-64
2022/11/28 06:16:02;;;;;;;8.90;8.10;;;6.10;99.90;;;;;;4993922;28;20512;-64
2022/11/28 06:18:29;;;;;;;8.70;8.00;;;6.10;99.90;;;;;;4994152;28;20457;-64
2022/11/28 06:20:55;;;;;;;8.83;8.13;;;6.10;99.90;;;;;;4993631;28;20997;-64
2022/11/28 06:23:22;;;;;;;7.90;7.30;;;6.20;99.90;;;;;;4994054;28;20512;-64
2022/11/28 06:25:48;;;;;;;9.13;7.67;;;6.20;99.90;;;;;;4993928;28;20461;-64
2022/11/28 06:28:16;;;;;;;8.67;8.07;;;6.10;99.90;;;;;;4993916;28;20454;-63
2022/11/28 06:30:44;;;;;;;9.00;8.17;;;6.10;99.90;;;;;;4997271;28;21019;-63
2022/11/28 06:33:10;;;;;;;8.37;7.67;;;6.10;99.90;;;;;;4997740;28;20454;-64
2022/11/28 06:35:37;;;;;;;9.97;8.90;;;6.10;99.90;;;;;;4997699;28;20458;-64
2022/11/28 06:38:03;;;;;;;8.80;8.20;;;6.10;99.90;;;;;;4997422;28;20481;-64
2022/11/28 06:40:31;;;;;;;12.93;9.53;;;6.10;99.90;;;;;;4997271;28;20536;-64
2022/11/28 06:42:57;;;;;;;9.50;8.70;;;6.10;99.90;;;;;;4998065;28;20437;-64
2022/11/28 06:45:25;;;;;;;16.40;9.63;;;6.10;99.90;;;;;;4997520;28;20568;-63
2022/11/28 06:47:52;;;;;;;10.10;9.20;;;6.10;99.90;;;;;;4997445;28;20453;-64
2022/11/28 06:50:19;;;;;;;10.30;9.37;;;6.10;99.90;;;;;;4997535;28;20462;-64
2022/11/28 06:52:45;;;;;;;9.87;9.00;;;6.10;99.90;;;;;;4997159;28;20602;-64
2022/11/28 06:55:12;;;;;;;12.63;9.03;;;6.10;99.90;;;;;;4997040;28;20940;-64
2022/11/28 06:57:39;;;;;;;9.20;8.30;;;6.00;99.90;;;;;;4997017;28;20980;-64
2022/11/28 07:00:07;;;;;;;9.97;9.07;;;6.10;99.90;;;;;;4997085;28;20974;-64
2022/11/28 07:02:35;;;;;;;10.83;9.00;;;6.10;99.90;;;;;;4996870;28;20493;-65
2022/11/28 07:05:01;;;;;;;9.73;8.87;;;6.10;99.90;;;;;;4996916;28;20454;-64
2022/11/28 07:07:28;;;;;;;9.90;8.90;;;6.10;99.90;;;;;;4996978;28;20449;-64
2022/11/28 07:09:54;;;;;;;14.13;9.50;;;6.10;99.90;;;;;;4997527;28;20500;-64
2022/11/28 07:12:21;;;;;;;10.10;9.20;;;6.10;99.90;;;;;;4997047;28;20477;-63
2022/11/28 07:14:48;;;;;;;11.03;9.50;;;6.10;99.90;;;;;;4996931;28;20461;-63
2022/11/28 07:17:15;;;;;;;12.53;9.70;;;6.00;99.90;;;;;;4997004;28;20497;-64
2022/11/28 07:19:43;;;;;;;10.80;9.70;;;6.10;99.90;;;;;;4998429;28;20582;-64
2022/11/28 07:22:10;;;;;;;10.90;8.93;;;6.20;99.90;;;;;;4997691;28;20474;-64
2022/11/28 07:24:37;;;;;;;9.50;8.70;;;6.20;99.90;;;;;;4997545;28;20463;-65
2022/11/28 07:27:03;;;;;;;10.37;9.47;;;6.20;99.90;;;;;;4997430;28;20454;-64
2022/11/28 07:29:35;;;;;;;9.13;8.43;;;6.20;99.90;;;;;;4996768;28;20860;-63
2022/11/28 07:32:02;;;;;;;12.40;11.33;;;6.20;99.90;;;;;;4996698;28;20474;-65
2022/11/28 07:34:28;;;;;;;10.87;9.77;;;6.20;99.90;;;;;;4996903;28;20453;-63
2022/11/28 07:36:56;;;;;;;10.70;9.60;;;6.20;99.90;;;;;;4996154;28;20481;-64
2022/11/28 07:39:23;;;;;;;9.90;9.00;;;6.20;99.90;;;;;;4996113;28;20461;-64
2022/11/28 07:41:50;;;;;;;9.73;8.83;;;6.20;99.90;;;;;;4996188;28;21004;-64
2022/11/28 07:44:17;;;;;;;8.67;7.97;;;6.30;99.90;;;;;;4996209;28;20960;-64
2022/11/28 07:46:45;;;;;;;11.93;10.97;;;6.30;99.90;;;;;;4996440;28;20488;-64
2022/11/28 07:49:12;;;;;;;10.93;9.93;;;6.30;99.90;;;;;;4996494;28;20454;-64
2022/11/28 07:51:39;;;;;;;9.70;8.90;;;6.40;99.90;;;;;;4996368;28;20479;-64
2022/11/28 07:54:08;;;;;;;9.77;8.90;;;6.30;99.90;;;;;;4996336;28;20462;-64
2022/11/28 07:56:37;;;;;;;9.63;8.77;;;6.40;99.90;;;;;;4996596;28;20821;-64
2022/11/28 07:59:04;;;;;;;9.90;8.90;;;6.40;99.90;;;;;;4998055;28;20458;-64
2022/11/28 08:01:34;;;;;;;10.20;9.33;;;6.40;99.90;;;;;;4997911;28;20866;-65
2022/11/28 08:04:01;;;;;;;9.50;8.60;;;6.40;99.90;;;;;;4998308;28;20461;-66
2022/11/28 08:06:30;;;;;;;12.77;9.17;;;6.40;99.90;;;;;;4997509;28;20458;-65
2022/11/28 08:08:59;;;;;;;9.87;8.97;;;6.50;99.90;;;;;;4995919;28;20513;-65
2022/11/28 08:11:29;;;;;;;9.03;8.23;;;6.60;99.90;;;;;;4995776;28;21046;-65
2022/11/28 08:13:56;;;;;;;9.00;8.30;;;6.60;99.90;;;;;;4995903;28;20465;-65
2022/11/28 08:16:24;;;;;;;9.43;8.63;;;6.70;99.90;;;;;;4995925;28;20492;-65
2022/11/28 08:18:52;;;;;;;9.57;8.67;;;6.70;99.90;;;;;;4995747;28;20485;-65
2022/11/28 08:21:22;;;;;;;10.60;9.60;;;6.80;99.90;;;;;;4995489;28;20478;-65
2022/11/28 08:23:50;;;;;;;10.33;9.33;;;6.90;99.90;;;;;;4995764;28;20550;-65
2022/11/28 08:26:18;;;;;;;10.17;9.10;;;6.90;99.90;;;;;;4995828;28;20545;-65
2022/11/28 08:28:46;;;;;;;9.43;8.63;;;6.90;99.90;;;;;;4995492;28;21089;-65
2022/11/28 08:31:15;;;;;;;10.27;9.40;;;6.90;99.90;;;;;;4995554;28;21031;-65
2022/11/28 08:33:42;;;;;;;9.73;8.93;;;6.90;99.90;;;;;;4995516;28;20489;-65
2022/11/28 08:36:10;;;;;;;9.97;9.07;;;6.90;99.90;;;;;;4995912;28;20457;-65
2022/11/28 08:38:39;;;;;;;9.80;8.80;;;6.90;99.90;;;;;;4996326;28;20482;-65
2022/11/28 08:41:07;;;;;;;10.60;9.70;;;6.90;99.90;;;;;;4995824;28;20478;-65
2022/11/28 08:43:35;;;;;;;9.87;8.10;;;6.90;99.90;;;;;;4995408;28;20442;-65
2022/11/28 08:46:03;;;;;;;9.63;8.73;;;7.00;99.90;;;;;;4995291;28;20454;-65
2022/11/28 08:48:31;;;;;;;9.23;8.23;;;7.00;99.90;;;;;;4995019;28;20851;-65
2022/11/28 08:50:58;;;;;;;9.27;8.50;;;7.00;99.90;;;;;;4994972;28;20532;-65
2022/11/28 08:53:25;;;;;;;10.27;8.33;;;7.00;99.90;;;;;;4994611;28;20462;-65
2022/11/28 08:55:52;;;;;;;9.40;8.50;;;7.10;99.90;;;;;;4995092;28;20457;-65
2022/11/28 08:58:19;;;;;;;10.87;8.97;;;7.10;99.90;;;;;;4994629;28;21073;-65
2022/11/28 09:00:46;;;;;;;8.53;7.73;;;7.20;99.90;;;;;;4994854;28;20540;-65
2022/11/28 09:03:17;;;;;;;8.73;8.03;;;7.20;99.90;;;;;;4994943;28;20454;-64
2022/11/28 09:05:45;;;;;;;10.47;9.40;;;7.30;99.90;;;;;;4994627;28;20793;-65
2022/11/28 09:08:12;;;;;;;9.63;8.73;;;7.40;99.90;;;;;;4994831;28;20449;-65
2022/11/28 09:10:40;;;;;;;9.53;8.60;;;7.40;99.90;;;;;;4994738;28;20551;-65
2022/11/28 09:13:07;;;;;;;9.47;8.63;;;7.40;99.90;;;;;;4996522;28;20484;-65
2022/11/28 09:15:34;;;;;;;9.40;8.60;;;7.40;99.90;;;;;;4996762;28;20461;-65
2022/11/28 09:18:01;;;;;;;9.33;8.43;;;7.50;99.90;;;;;;4995414;28;20482;-65
2022/11/28 09:20:29;;;;;;;9.33;8.43;;;7.50;99.90;;;;;;4995219;28;20472;-65
2022/11/28 09:22:55;;;;;;;11.13;8.53;;;7.60;99.90;;;;;;4994560;28;20450;-65
2022/11/28 09:25:22;;;;;;;9.20;8.30;;;7.60;99.90;;;;;;4994505;28;20462;-65
2022/11/28 09:27:49;;;;;;;8.93;8.13;;;7.70;99.90;;;;;;4994595;28;20508;-65
2022/11/28 09:30:16;;;;;;;9.37;8.57;;;7.70;99.90;;;;;;4994456;28;20842;-65
2022/11/28 09:32:47;;;;;;;9.50;8.70;;;7.80;99.90;;;;;;4994599;28;20453;-65
2022/11/28 09:35:14;;;;;;;9.00;8.30;;;7.80;99.90;;;;;;4994664;28;20446;-63
2022/11/28 09:37:42;;;;;;;10.13;9.20;;;7.70;99.90;;;;;;4994406;28;20826;-63
2022/11/28 09:40:16;;;;;;;10.10;9.20;;;7.70;99.90;;;;;;4994543;28;20458;-63
2022/11/28 09:42:44;;;;;;;9.83;8.83;;;7.80;99.90;;;;;;4994147;28;21003;-63
2022/11/28 09:45:15;;;;;;;9.80;8.77;;;7.80;99.90;;;;;;4994373;28;20453;-65
2022/11/28 09:47:45;;;;;;;10.67;9.70;;;7.80;99.90;;;;;;4994605;28;20493;-63
2022/11/28 09:50:15;;;;;;;10.13;9.00;;;7.80;99.90;;;;;;4994217;28;20492;-63
2022/11/28 09:52:49;;;;;;;9.70;8.70;;;7.80;99.90;;;;;;4994514;28;20442;-63
2022/11/28 09:55:20;;;;;;;9.77;8.20;;;7.90;99.90;;;;;;4994423;28;20444;-63
2022/11/28 09:57:49;;;;;;;9.47;8.63;;;8.00;99.90;;;;;;4994311;28;20512;-64
2022/11/28 10:00:21;;;;;;;8.70;8.00;;;8.00;99.90;;;;;;4994145;28;20460;-63
2022/11/28 10:03:04;;;;;;;11.07;10.00;;;8.00;99.90;;;;;;4994697;28;20532;-63
2022/11/28 10:05:42;;;;;;;9.10;8.20;;;8.00;99.90;;;;;;4998188;28;20438;-63
2022/11/28 10:08:23;;;;;;;9.87;7.40;;;8.00;99.90;;;;;;4998258;28;20433;-63
2022/11/28 10:11:02;;;;;;;9.47;8.57;;;8.10;99.90;;;;;;4998079;28;20473;-65
2022/11/28 10:13:41;;;;;;;9.43;7.90;;;8.10;99.90;;;;;;4998733;28;20433;-65
2022/11/28 10:16:14;;;;;;;9.70;8.70;;;8.20;99.90;;;;;;4997673;28;20893;-63
2022/11/28 10:18:46;;;;;;;10.03;9.03;;;8.30;99.90;;;;;;4997899;28;20465;-63
2022/11/28 10:21:25;;;;;;;14.80;9.67;;;8.30;99.90;;;;;;4997959;28;20473;-63
2022/11/28 10:23:57;;;;;;;10.90;9.10;;;8.40;99.90;;;;;;4998008;28;20445;-63
2022/11/28 10:26:30;;;;;;;10.40;9.30;;;8.50;99.90;;;;;;4997669;28;20846;-65
2022/11/28 10:29:01;;;;;;;9.00;8.20;;;8.40;99.90;;;;;;4997886;28;20433;-63
2022/11/28 10:31:33;;;;;;;9.07;8.27;;;8.40;99.90;;;;;;4997518;28;20977;-63
2022/11/28 10:34:06;;;;;;;9.87;8.97;;;8.30;99.90;;;;;;4997637;28;20909;-63
2022/11/28 10:36:50;;;;;;;9.80;8.80;;;8.30;99.90;;;;;;4997801;28;20437;-63
2022/11/28 10:39:18;;;;;;;11.40;9.60;;;8.30;99.90;;;;;;4997619;28;20466;-63
2022/11/28 10:42:10;;;;;;;9.40;8.60;;;8.30;99.90;;;;;;4998249;28;20478;-63
2022/11/28 10:44:48;;;;;;;8.37;7.67;;;8.30;99.90;;;;;;4997638;28;20437;-63
2022/11/28 10:47:23;;;;;;;9.03;8.13;;;8.30;99.90;;;;;;4997561;28;20445;-63
2022/11/28 10:49:59;;;;;;;8.40;7.60;;;8.30;99.90;;;;;;4997651;28;20445;-63
2022/11/28 10:52:32;;;;;;;8.50;7.80;;;8.40;99.90;;;;;;4997168;28;20999;-63
2022/11/28 10:55:11;;;;;;;9.20;8.33;;;8.50;99.90;;;;;;4997450;28;20500;-63
2022/11/28 10:57:43;;;;;;;9.60;7.50;;;8.70;99.90;;;;;;4997450;28;20497;-63
2022/11/28 11:00:12;;;;;;;9.20;8.30;;;8.70;99.90;;;;;;4997455;28;20453;-65
2022/11/28 11:02:44;;;;;;;9.70;8.07;;;8.80;99.90;;;;;;4996991;28;20561;-64
2022/11/28 11:05:13;;;;;;;8.10;7.33;;;8.80;99.90;;;;;;4997268;28;20438;-63
2022/11/28 11:07:46;;;;;;;9.60;8.70;;;8.90;99.90;;;;;;4996889;28;20544;-65
2022/11/28 11:10:18;;;;;;;8.20;7.40;;;9.00;99.90;;;;;;4997098;28;20441;-65
2022/11/28 11:12:46;;;;;;;8.53;6.97;;;9.00;99.90;;;;;;4997076;28;20813;-65
2022/11/28 11:15:20;;;;;;;8.73;7.93;;;9.00;99.90;;;;;;4996482;28;20453;-65
2022/11/28 11:17:49;;;;;;;11.63;8.07;;;9.10;99.90;;;;;;4997042;28;20892;-65
2022/11/28 11:20:33;;;;;;;8.60;7.80;;;9.10;99.90;;;;;;4996859;28;20460;-65
2022/11/28 11:23:02;;;;;;;9.60;8.17;;;9.20;99.90;;;;;;4996879;28;20480;-65
2022/11/28 11:25:32;;;;;;;8.83;7.70;;;9.10;99.90;;;;;;4996811;28;20823;-65
2022/11/28 11:28:01;;;;;;;8.23;7.47;;;9.10;99.90;;;;;;4996779;28;20568;-65
2022/11/28 11:30:30;;;;;;;9.07;7.93;;;9.10;99.90;;;;;;4996343;28;20465;-65
2022/11/28 11:32:58;;;;;;;8.27;7.47;;;9.10;99.90;;;;;;4997163;28;20461;-65
2022/11/28 11:35:28;;;;;;;8.40;7.57;;;9.10;99.90;;;;;;4998370;28;20461;-65
2022/11/28 11:38:16;;;;;;;9.97;8.20;;;9.00;99.90;;;;;;4998510;28;20481;-65
2022/11/28 11:40:44;;;;;;;11.87;8.40;;;9.00;99.90;;;;;;4998049;28;20476;-65
2022/11/28 11:43:25;;;;;;;16.53;9.33;;;8.90;99.90;;;;;;4998194;28;20458;-65
2022/11/28 11:46:04;;;;;;;8.97;8.00;;;8.90;99.90;;;;;;4998267;28;20438;-65
2022/11/28 11:48:36;;;;;;;11.93;8.40;;;8.90;99.90;;;;;;4997603;28;20441;-65
2022/11/28 11:51:02;;;;;;;9.03;8.13;;;8.80;99.90;;;;;;4996798;28;20569;-65
2022/11/28 11:53:29;;;;;;;10.60;9.60;;;8.90;99.90;;;;;;4996150;28;20937;-65
2022/11/28 11:56:02;;;;;;;9.83;8.83;;;8.90;99.90;;;;;;4995986;28;20957;-65
2022/11/28 11:58:34;;;;;;;9.37;8.50;;;8.90;99.90;;;;;;4996292;28;20561;-65
2022/11/28 12:01:02;;;;;;;9.37;8.57;;;8.80;99.90;;;;;;4996047;28;20481;-65
2022/11/28 12:03:34;;;;;;;9.20;8.30;;;8.80;99.90;;;;;;4996923;28;20461;-65
2022/11/28 12:06:06;;;;;;;10.07;8.93;;;8.70;99.90;;;;;;4996178;28;20442;-65
2022/11/28 12:08:35;;;;;;;10.93;9.70;;;8.70;99.90;;;;;;4996657;28;20771;-65
2022/11/28 12:11:14;;;;;;;11.10;10.00;;;8.70;99.90;;;;;;4996013;28;20856;-65
2022/11/28 12:13:41;;;;;;;9.30;8.60;;;8.60;99.90;;;;;;4995857;28;20438;-65
2022/11/28 12:16:21;;;;;;;10.40;9.50;;;8.60;99.90;;;;;;4995854;28;20840;-65
2022/11/28 12:18:58;;;;;;;9.93;8.97;;;8.50;99.90;;;;;;4995743;28;20518;-65
2022/11/28 12:21:33;;;;;;;12.83;11.57;;;8.50;99.90;;;;;;4995894;28;20477;-65
2022/11/28 12:24:08;;;;;;;11.30;10.20;;;8.50;99.90;;;;;;4995776;28;20445;-65
2022/11/28 12:26:44;;;;;;;12.33;11.17;;;8.50;99.90;;;;;;4994844;28;20437;-65
2022/11/28 12:29:27;;;;;;;10.47;9.40;;;8.50;99.90;;;;;;4995687;28;20465;-65
2022/11/28 12:32:10;;;;;;;10.73;9.43;;;8.50;99.90;;;;;;4995571;28;20477;-65
2022/11/28 12:34:44;;;;;;;11.43;10.33;;;8.40;99.90;;;;;;4995542;28;20446;-65
2022/11/28 12:37:22;;;;;;;13.07;11.67;;;8.40;99.90;;;;;;4995507;28;20491;-65
2022/11/28 12:40:02;;;;;;;14.37;12.70;;;8.30;99.90;;;;;;4995401;28;20462;-65
2022/11/28 12:42:45;;;;;;;12.70;11.60;;;8.40;99.90;;;;;;4995477;28;20520;-65
2022/11/28 12:45:29;;;;;;;12.87;11.57;;;8.40;99.90;;;;;;4995381;28;20497;-65
2022/11/28 12:48:07;;;;;;;11.57;10.53;;;8.50;99.90;;;;;;4995275;28;20496;-65
2022/11/28 12:50:38;;;;;;;11.70;10.60;;;8.60;99.90;;;;;;4995226;28;20496;-65
2022/11/28 12:53:21;;;;;;;10.10;9.20;;;8.60;99.90;;;;;;4995315;28;20441;-65
2022/11/28 12:55:56;;;;;;;11.13;10.13;;;8.70;99.90;;;;;;4995322;28;20504;-65
2022/11/28 12:58:29;;;;;;;10.40;9.33;;;8.80;99.90;;;;;;4995286;28;20532;-65
2022/11/28 13:01:11;;;;;;;18.10;10.27;;;8.80;99.90;;;;;;4994884;28;20988;-65
2022/11/28 13:03:55;;;;;;;11.23;9.57;;;8.90;99.90;;;;;;4995006;28;20902;-65
2022/11/28 13:06:31;;;;;;;10.87;9.83;;;8.90;99.90;;;;;;4995204;28;20449;-65
2022/11/28 13:09:18;;;;;;;12.60;10.13;;;9.00;99.90;;;;;;4994881;28;20937;-65
2022/11/28 13:11:56;;;;;;;11.40;10.37;;;9.00;99.90;;;;;;4995022;28;20536;-65
2022/11/28 13:14:37;;;;;;;10.93;9.87;;;9.10;99.90;;;;;;4995161;28;20445;-65
2022/11/28 13:17:16;;;;;;;10.17;9.27;;;9.00;99.90;;;;;;4994773;28;20921;-65
2022/11/28 13:19:51;;;;;;;12.07;10.97;;;9.10;99.90;;;;;;4995402;28;20508;-65
2022/11/28 13:22:23;;;;;;;11.60;10.57;;;9.10;99.90;;;;;;4994963;28;20928;-65
2022/11/28 13:24:59;;;;;;;12.73;10.67;;;9.10;99.90;;;;;;4994885;28;20449;-65
2022/11/28 13:27:35;;;;;;;11.47;10.27;;;9.10;99.90;;;;;;4994782;28;20503;-65
2022/11/28 13:30:13;;;;;;;13.10;11.03;;;9.20;99.90;;;;;;4994637;28;20533;-65
2022/11/28 13:32:46;;;;;;;11.27;10.20;;;9.20;99.90;;;;;;4994852;28;20442;-65
2022/11/28 13:35:14;;;;;;;11.30;10.20;;;9.20;99.90;;;;;;4995332;28;20445;-65
2022/11/28 13:37:48;;;;;;;11.83;10.17;;;9.10;99.90;;;;;;4994469;28;20485;-65
2022/11/28 13:40:23;;;;;;;11.03;9.93;;;9.20;99.90;;;;;;4994430;28;20466;-65
2022/11/28 13:42:56;;;;;;;15.53;11.40;;;9.10;99.90;;;;;;4994659;28;20441;-65
2022/11/28 13:45:28;;;;;;;11.93;10.90;;;9.10;99.90;;;;;;4994554;28;20442;-65
2022/11/28 13:47:55;;;;;;;11.70;10.60;;;9.00;99.90;;;;;;4994531;28;20442;-65
2022/11/28 13:50:36;;;;;;;12.13;11.03;;;9.00;99.90;;;;;;4994336;28;20493;-65
2022/11/28 13:53:18;;;;;;;11.70;10.50;;;9.00;99.90;;;;;;4994306;28;20445;-65
2022/11/28 13:55:47;;;;;;;10.60;9.60;;;9.00;99.90;;;;;;4994886;28;20445;-65
2022/11/28 13:58:18;;;;;;;14.17;11.33;;;9.00;99.90;;;;;;4994517;28;20453;-65
2022/11/28 14:01:05;;;;;;;13.13;11.83;;;9.00;99.90;;;;;;4994591;28;20481;-65
2022/11/28 14:03:34;;;;;;;15.40;9.87;;;9.00;99.90;;;;;;4995056;28;20440;-65
2022/11/28 14:06:04;;;;;;;10.07;9.27;;;9.00;99.90;;;;;;4994629;28;20450;-65
2022/11/28 14:08:37;;;;;;;11.07;10.03;;;9.00;99.90;;;;;;4994148;28;20971;-65
2022/11/28 14:11:27;;;;;;;12.07;10.73;;;9.00;99.90;;;;;;4994671;28;20473;-65
2022/11/28 14:14:20;;;;;;;11.40;10.40;;;9.00;99.90;;;;;;4995674;28;20450;-66
2022/11/28 14:17:03;;;;;;;13.80;11.03;;;9.00;99.90;;;;;;4996590;28;20843;-65
2022/11/28 14:19:54;;;;;;;10.83;9.90;;;9.00;99.90;;;;;;4996856;28;20473;-66
2022/11/28 14:22:33;;;;;;;10.73;9.80;;;9.00;99.90;;;;;;4995189;28;20568;-65
2022/11/28 14:25:08;;;;;;;10.30;9.30;;;9.00;99.90;;;;;;4994644;28;20804;-65
2022/11/28 14:27:38;;;;;;;11.07;10.07;;;9.10;99.90;;;;;;4994394;28;20441;-65
2022/11/28 14:30:06;;;;;;;10.20;9.20;;;9.00;99.90;;;;;;4994234;28;20438;-65
2022/11/28 14:32:38;;;;;;;10.90;9.50;;;9.00;99.90;;;;;;4976798;28;20482;-65
2022/11/28 14:35:11;;;;;;;10.07;9.07;;;9.00;99.90;;;;;;4993969;28;20496;-65
2022/11/28 14:37:56;;;;;;;12.50;8.37;;;9.00;99.90;;;;;;4994211;28;20441;-65
2022/11/28 14:41:07;;;;;;;9.10;8.30;;;9.00;99.90;;;;;;4994481;28;20821;-65
2022/11/28 14:43:36;;;;;;;9.83;8.80;;;9.00;99.90;;;;;;4993955;28;20500;-65
2022/11/28 14:46:28;;;;;;;9.10;8.20;;;9.00;99.90;;;;;;4993851;28;20512;-65
2022/11/28 14:49:20;;;;;;;10.10;9.20;;;9.00;99.90;;;;;;4970736;28;21020;-65
2022/11/28 14:52:16;;;;;;;11.53;8.90;;;9.00;99.90;;;;;;4997317;28;20469;-65
2022/11/28 14:54:43;;;;;;;10.23;8.67;;;9.00;99.90;;;;;;4998032;28;20438;-65
2022/11/28 14:57:16;;;;;;;9.70;8.70;;;9.00;99.90;;;;;;4998110;28;20507;-65
2022/11/28 14:59:43;;;;;;;10.07;9.17;;;9.00;99.90;;;;;;4997933;28;20468;-65
2022/11/28 15:02:26;;;;;;;9.80;8.80;;;9.00;99.90;;;;;;4996965;28;21032;-65
2022/11/28 15:05:11;;;;;;;12.90;10.73;;;9.10;99.90;;;;;;4997280;28;20442;-65
2022/11/28 15:07:50;;;;;;;12.53;10.80;;;9.10;99.90;;;;;;4996877;28;20909;-65
2022/11/28 15:10:23;;;;;;;11.60;10.40;;;9.10;99.90;;;;;;4996854;28;20778;-65
2022/11/28 15:12:58;;;;;;;12.23;10.93;;;9.10;99.90;;;;;;4997166;28;20442;-65
2022/11/28 15:15:25;;;;;;;12.87;11.57;;;9.10;99.90;;;;;;4997115;28;20448;-65
2022/11/28 15:17:54;;;;;;;12.23;11.13;;;9.00;99.90;;;;;;4997772;28;20510;-65
2022/11/28 15:20:27;;;;;;;11.97;10.80;;;9.00;99.90;;;;;;4996844;28;20477;-65
2022/11/28 15:22:54;;;;;;;13.50;11.30;;;9.00;99.90;;;;;;4996833;28;20438;-65
2022/11/28 15:25:23;;;;;;;11.63;10.43;;;9.00;99.90;;;;;;4996875;28;20458;-65
2022/11/28 15:27:50;;;;;;;14.37;11.80;;;9.00;99.90;;;;;;4996891;28;20464;-65
2022/11/28 15:30:21;;;;;;;12.60;11.50;;;9.00;99.90;;;;;;4996868;28;20991;-65
2022/11/28 15:32:48;;;;;;;12.30;11.10;;;9.00;99.90;;;;;;4997347;28;20453;-65
2022/11/28 15:35:17;;;;;;;29.20;12.70;;;9.00;99.90;;;;;;4996614;28;21008;-65
2022/11/28 15:37:50;;;;;;;12.20;11.10;;;9.00;99.90;;;;;;4997344;28;20458;-65
2022/11/28 15:40:20;;;;;;;12.93;11.77;;;9.00;99.90;;;;;;4996676;28;20466;-65
2022/11/28 15:42:48;;;;;;;12.40;11.30;;;8.90;99.90;;;;;;4996341;28;21020;-65
2022/11/28 15:45:22;;;;;;;13.17;11.77;;;8.90;99.90;;;;;;4996598;28;20524;-65
2022/11/28 15:47:50;;;;;;;12.90;11.70;;;9.00;99.90;;;;;;4996603;28;20491;-65
2022/11/28 15:50:19;;;;;;;14.47;13.00;;;9.00;99.90;;;;;;4996339;28;20918;-65
2022/11/28 15:52:55;;;;;;;13.37;12.07;;;8.90;99.90;;;;;;4996385;28;20453;-65
2022/11/28 15:55:22;;;;;;;14.37;12.83;;;8.90;99.90;;;;;;4996393;28;20500;-65
2022/11/28 15:57:48;;;;;;;17.03;13.43;;;8.90;99.90;;;;;;4996298;28;20453;-65
2022/11/28 16:00:17;;;;;;;15.80;14.30;;;8.80;99.90;;;;;;4996565;28;20473;-65
2022/11/28 16:02:45;;;;;;;15.73;14.10;;;8.80;99.90;;;;;;4995994;28;20967;-65
2022/11/28 16:05:19;;;;;;;16.23;14.50;;;8.80;99.90;;;;;;4997017;28;20840;-65
2022/11/28 16:07:47;;;;;;;17.10;15.40;;;8.80;99.90;;;;;;4996197;28;20848;-65
2022/11/28 16:10:23;;;;;;;17.03;15.53;;;8.70;99.90;;;;;;4996329;28;20487;-65
2022/11/28 16:12:53;;;;;;;17.87;16.10;;;8.70;99.90;;;;;;4996451;28;20438;-65
2022/11/28 16:15:23;;;;;;;19.70;16.67;;;8.70;99.90;;;;;;4996312;28;20513;-65
2022/11/28 16:17:50;;;;;;;17.97;16.27;;;8.70;99.90;;;;;;4996028;28;20445;-65
2022/11/28 16:20:23;;;;;;;18.90;17.00;;;8.60;99.90;;;;;;4996104;28;20478;-65
2022/11/28 16:22:50;;;;;;;17.53;15.80;;;8.60;99.90;;;;;;4996231;28;20492;-65
2022/11/28 16:25:24;;;;;;;17.20;15.50;;;8.50;99.90;;;;;;4996001;28;20555;-65
2022/11/28 16:27:52;;;;;;;15.53;14.13;;;8.50;99.90;;;;;;4995870;28;20803;-65
2022/11/28 16:30:35;;;;;;;15.73;14.43;;;8.50;99.90;;;;;;4995817;28;20541;-65
2022/11/28 16:33:03;;;;;;;15.17;13.87;;;8.40;99.90;;;;;;4996190;28;20453;-64
2022/11/28 16:35:36;;;;;;;16.10;14.50;;;8.40;99.90;;;;;;4995598;28;20945;-65
2022/11/28 16:38:04;;;;;;;17.70;15.70;;;8.30;99.90;;;;;;4996431;28;20441;-64
2022/11/28 16:40:32;;;;;;;16.07;14.77;;;8.30;99.90;;;;;;4995656;28;20486;-64
2022/11/28 16:43:01;;;;;;;16.00;14.20;;;8.30;99.90;;;;;;4995633;28;20941;-64
2022/11/28 16:45:30;;;;;;;15.57;14.17;;;8.30;99.90;;;;;;4995751;28;20493;-64
2022/11/28 16:48:05;;;;;;;15.37;13.97;;;8.30;99.90;;;;;;4996095;28;20855;-64
2022/11/28 16:50:32;;;;;;;17.03;15.40;;;8.30;99.90;;;;;;4996127;28;20464;-64
2022/11/28 16:52:59;;;;;;;16.87;14.93;;;8.30;99.90;;;;;;4995875;28;20458;-63
2022/11/28 16:55:44;;;;;;;17.70;15.90;;;8.30;99.90;;;;;;4995713;28;20454;-64
2022/11/28 16:58:16;;;;;;;18.10;16.30;;;8.20;99.90;;;;;;4995876;28;20536;-65
2022/11/28 17:00:48;;;;;;;17.33;15.83;;;8.20;99.90;;;;;;4995955;28;20497;-64
2022/11/28 17:03:48;;;;;;;17.70;15.90;;;8.20;99.90;;;;;;4995894;28;20466;-63
2022/11/28 17:06:20;;;;;;;20.17;17.90;;;8.20;99.90;;;;;;4995810;28;20534;-64
2022/11/28 17:08:47;;;;;;;21.60;17.93;;;8.20;99.90;;;;;;4995855;28;20840;-64
2022/11/28 17:11:18;;;;;;;19.43;17.10;;;8.10;99.90;;;;;;4995536;28;20864;-64
2022/11/28 17:13:45;;;;;;;17.57;15.70;;;8.10;99.90;;;;;;4995596;28;20442;-64
2022/11/28 17:16:16;;;;;;;17.60;16.10;;;8.10;99.90;;;;;;4995957;28;20449;-64
2022/11/28 17:18:43;;;;;;;17.77;16.27;;;8.10;99.90;;;;;;4995931;28;20441;-64
2022/11/28 17:21:12;;;;;;;18.13;16.33;;;8.10;99.90;;;;;;4995229;28;20481;-64
2022/11/28 17:23:39;;;;;;;16.07;14.40;;;8.10;99.90;;;;;;4995148;28;20475;-64
2022/11/28 17:26:06;;;;;;;17.90;16.20;;;8.10;99.90;;;;;;4994680;28;20988;-64
2022/11/28 17:28:34;;;;;;;17.30;15.67;;;8.10;99.90;;;;;;4995644;28;20458;-64
2022/11/28 17:31:01;;;;;;;19.67;17.67;;;8.10;99.90;;;;;;4995122;28;20496;-64
2022/11/28 17:33:28;;;;;;;18.53;16.73;;;8.20;99.90;;;;;;4994823;28;20461;-63
2022/11/28 17:35:56;;;;;;;19.00;17.00;;;8.20;99.90;;;;;;4994743;28;20460;-63
2022/11/28 17:38:23;;;;;;;19.57;17.60;;;8.20;99.90;;;;;;4994936;28;20457;-64
2022/11/28 17:40:50;;;;;;;17.50;15.80;;;8.20;99.90;;;;;;4994908;28;20485;-64
2022/11/28 17:43:18;;;;;;;17.07;15.47;;;8.20;99.90;;;;;;4995609;28;20485;-63
2022/11/28 17:45:47;;;;;;;18.37;16.57;;;8.30;99.90;;;;;;4994701;28;20457;-63
2022/11/28 17:48:14;;;;;;;20.40;18.47;;;8.20;99.90;;;;;;4994861;28;20455;-64
2022/11/28 17:50:42;;;;;;;19.73;17.57;;;8.30;99.90;;;;;;4994563;28;20513;-63
2022/11/28 17:53:10;;;;;;;19.07;17.10;;;8.30;99.90;;;;;;4994654;28;20549;-63
2022/11/28 17:55:39;;;;;;;18.37;16.53;;;8.30;99.90;;;;;;4994322;28;20853;-63
2022/11/28 17:58:06;;;;;;;17.53;16.03;;;8.40;99.90;;;;;;4994517;28;20454;-64
2022/11/28 18:00:33;;;;;;;18.97;16.90;;;8.40;99.90;;;;;;4994213;28;20478;-63
2022/11/28 18:03:00;;;;;;;20.67;17.40;;;8.40;99.90;;;;;;4994054;28;20926;-63
2022/11/28 18:05:27;;;;;;;18.47;16.70;;;8.40;99.90;;;;;;4994118;28;20941;-64
2022/11/28 18:07:54;;;;;;;19.47;17.50;;;8.50;99.90;;;;;;4993997;28;20461;-64
2022/11/28 18:10:22;;;;;;;19.73;17.87;;;8.50;99.90;;;;;;4994032;28;20925;-64